sensor_id;sensor_type;location;lat;lon;timestamp;P1;durP1;ratioP1;P2;durP2;ratioP2
15858;SDS011;8029;52.202;7.308;2022-11-15T00:00:49;7.55;;;5.63;;
15858;SDS011;8029;52.202;7.308;2022-11-15T00:03:15;7.88;;;6.20;;
15858;SDS011;8029;52.202;7.308;2022-11-15T00:05:42;8.68;;;5.85;;
15858;SDS011;8029;52.202;7.308;2022-11-15T00:08:08;6.63;;;5.68;;
15858;SDS011;8029;52.202;7.308;2022-11-15T00:10:34;6.35;;;5.32;;
15858;SDS011;8029;52.202;7.308;2022-11-15T00:13:03;10.70;;;6.35;;
15858;SDS011;8029;52.202;7.308;2022-11-15T00:15:30;8.30;;;5.35;;
15858;SDS011;8029;52.202;7.308;2022-11-15T00:17:55;7.10;;;5.68;;
15858;SDS011;8029;52.202;7.308;2022-11-15T00:20:21;6.55;;;4.93;;
15858;SDS011;8029;52.202;7.308;2022-11-15T00:22:47;6.70;;;5.68;;
15858;SDS011;8029;52.202;7.308;2022-11-15T00:25:13;5.25;;;4.75;;
15858;SDS011;8029;52.202;7.308;2022-11-15T00:27:39;9.27;;;7.10;;
15858;SDS011;8029;52.202;7.308;2022-11-15T00:30:05;6.55;;;5.95;;
15858;SDS011;8029;52.202;7.308;2022-11-15T00:32:32;6.25;;;5.10;;
15858;SDS011;8029;52.202;7.308;2022-11-15T00:34:58;6.15;;;5.55;;
15858;SDS011;8029;52.202;7.308;2022-11-15T00:37:24;6.30;;;5.70;;
15858;SDS011;8029;52.202;7.308;2022-11-15T00:39:49;7.97;;;6.47;;
15858;SDS011;8029;52.202;7.308;2022-11-15T00:42:15;6.53;;;5.75;;
15858;SDS011;8029;52.202;7.308;2022-11-15T00:44:41;13.05;;;6.43;;
15858;SDS011;8029;52.202;7.308;2022-11-15T00:47:07;8.93;;;5.55;;
15858;SDS011;8029;52.202;7.308;2022-11-15T00:49:33;6.60;;;5.68;;
15858;SDS011;8029;52.202;7.308;2022-11-15T00:51:59;6.20;;;5.50;;
15858;SDS011;8029;52.202;7.308;2022-11-15T00:54:25;7.53;;;6.32;;
15858;SDS011;8029;52.202;7.308;2022-11-15T00:56:51;9.27;;;6.22;;
15858;SDS011;8029;52.202;7.308;2022-11-15T00:59:17;10.10;;;5.90;;
15858;SDS011;8029;52.202;7.308;2022-11-15T01:01:44;8.90;;;6.78;;
15858;SDS011;8029;52.202;7.308;2022-11-15T01:04:13;9.23;;;6.30;;
15858;SDS011;8029;52.202;7.308;2022-11-15T01:06:39;7.47;;;5.55;;
15858;SDS011;8029;52.202;7.308;2022-11-15T01:09:08;5.28;;;4.50;;
15858;SDS011;8029;52.202;7.308;2022-11-15T01:11:34;5.38;;;4.88;;
15858;SDS011;8029;52.202;7.308;2022-11-15T01:14:00;6.22;;;5.63;;
15858;SDS011;8029;52.202;7.308;2022-11-15T01:16:26;7.18;;;6.13;;
15858;SDS011;8029;52.202;7.308;2022-11-15T01:18:52;6.05;;;5.45;;
15858;SDS011;8029;52.202;7.308;2022-11-15T01:21:18;8.48;;;6.20;;
15858;SDS011;8029;52.202;7.308;2022-11-15T01:23:44;9.98;;;6.45;;
15858;SDS011;8029;52.202;7.308;2022-11-15T01:26:12;5.90;;;5.30;;
15858;SDS011;8029;52.202;7.308;2022-11-15T01:28:39;7.57;;;5.13;;
15858;SDS011;8029;52.202;7.308;2022-11-15T01:31:08;7.28;;;5.43;;
15858;SDS011;8029;52.202;7.308;2022-11-15T01:33:35;9.80;;;6.03;;
15858;SDS011;8029;52.202;7.308;2022-11-15T01:36:05;5.93;;;4.97;;
15858;SDS011;8029;52.202;7.308;2022-11-15T01:38:32;8.48;;;4.93;;
15858;SDS011;8029;52.202;7.308;2022-11-15T01:40:58;12.65;;;5.72;;
15858;SDS011;8029;52.202;7.308;2022-11-15T01:43:26;6.28;;;4.95;;
15858;SDS011;8029;52.202;7.308;2022-11-15T01:45:56;5.15;;;4.65;;
15858;SDS011;8029;52.202;7.308;2022-11-15T01:48:25;5.90;;;5.30;;
15858;SDS011;8029;52.202;7.308;2022-11-15T01:50:55;6.07;;;5.28;;
15858;SDS011;8029;52.202;7.308;2022-11-15T01:53:21;5.78;;;4.80;;
15858;SDS011;8029;52.202;7.308;2022-11-15T01:55:48;5.40;;;4.90;;
15858;SDS011;8029;52.202;7.308;2022-11-15T01:58:15;5.45;;;4.90;;
15858;SDS011;8029;52.202;7.308;2022-11-15T02:00:41;6.47;;;5.55;;
15858;SDS011;8029;52.202;7.308;2022-11-15T02:03:07;5.57;;;5.05;;
15858;SDS011;8029;52.202;7.308;2022-11-15T02:05:33;5.80;;;5.20;;
15858;SDS011;8029;52.202;7.308;2022-11-15T02:08:00;10.63;;;5.32;;
15858;SDS011;8029;52.202;7.308;2022-11-15T02:10:27;6.70;;;5.38;;
15858;SDS011;8029;52.202;7.308;2022-11-15T02:12:53;11.20;;;5.57;;
15858;SDS011;8029;52.202;7.308;2022-11-15T02:15:20;7.55;;;6.15;;
15858;SDS011;8029;52.202;7.308;2022-11-15T02:20:41;4.82;;;4.20;;
15858;SDS011;8029;52.202;7.308;2022-11-15T02:23:28;5.15;;;4.65;;
15858;SDS011;8029;52.202;7.308;2022-11-15T02:26:08;6.88;;;5.32;;
15858;SDS011;8029;52.202;7.308;2022-11-15T02:31:10;5.80;;;5.18;;
15858;SDS011;8029;52.202;7.308;2022-11-15T02:36:18;6.25;;;5.35;;
15858;SDS011;8029;52.202;7.308;2022-11-15T02:41:31;8.90;;;5.38;;
15858;SDS011;8029;52.202;7.308;2022-11-15T02:44:03;7.45;;;5.05;;
15858;SDS011;8029;52.202;7.308;2022-11-15T02:49:14;7.40;;;5.13;;
15858;SDS011;8029;52.202;7.308;2022-11-15T02:51:40;6.22;;;4.55;;
15858;SDS011;8029;52.202;7.308;2022-11-15T02:54:10;5.93;;;5.32;;
15858;SDS011;8029;52.202;7.308;2022-11-15T02:56:36;5.57;;;4.85;;
15858;SDS011;8029;52.202;7.308;2022-11-15T03:07:15;6.43;;;4.75;;
15858;SDS011;8029;52.202;7.308;2022-11-15T03:09:52;4.40;;;4.00;;
15858;SDS011;8029;52.202;7.308;2022-11-15T03:12:37;5.25;;;4.75;;
15858;SDS011;8029;52.202;7.308;2022-11-15T03:15:17;5.25;;;4.60;;
15858;SDS011;8029;52.202;7.308;2022-11-15T03:18:28;5.30;;;4.72;;
15858;SDS011;8029;52.202;7.308;2022-11-15T03:20:33;6.63;;;4.13;;
15858;SDS011;8029;52.202;7.308;2022-11-15T03:23:01;16.02;;;5.45;;
15858;SDS011;8029;52.202;7.308;2022-11-15T03:25:29;8.18;;;4.88;;
15858;SDS011;8029;52.202;7.308;2022-11-15T03:27:57;6.18;;;4.35;;
15858;SDS011;8029;52.202;7.308;2022-11-15T03:30:25;7.72;;;4.68;;
15858;SDS011;8029;52.202;7.308;2022-11-15T03:32:56;5.47;;;4.70;;
15858;SDS011;8029;52.202;7.308;2022-11-15T03:35:23;5.00;;;4.50;;
15858;SDS011;8029;52.202;7.308;2022-11-15T03:37:52;5.07;;;4.10;;
15858;SDS011;8029;52.202;7.308;2022-11-15T03:40:22;3.92;;;3.40;;
15858;SDS011;8029;52.202;7.308;2022-11-15T03:45:22;4.55;;;3.63;;
15858;SDS011;8029;52.202;7.308;2022-11-15T03:47:54;6.18;;;4.32;;
15858;SDS011;8029;52.202;7.308;2022-11-15T03:50:22;5.90;;;4.70;;
15858;SDS011;8029;52.202;7.308;2022-11-15T03:52:49;5.28;;;4.57;;
15858;SDS011;8029;52.202;7.308;2022-11-15T03:55:17;4.43;;;4.00;;
15858;SDS011;8029;52.202;7.308;2022-11-15T03:57:44;4.40;;;4.00;;
15858;SDS011;8029;52.202;7.308;2022-11-15T04:00:10;6.32;;;5.03;;
15858;SDS011;8029;52.202;7.308;2022-11-15T04:02:37;5.45;;;4.95;;
15858;SDS011;8029;52.202;7.308;2022-11-15T04:05:03;7.00;;;4.65;;
15858;SDS011;8029;52.202;7.308;2022-11-15T04:07:29;5.47;;;3.90;;
15858;SDS011;8029;52.202;7.308;2022-11-15T04:09:55;4.57;;;4.18;;
15858;SDS011;8029;52.202;7.308;2022-11-15T04:12:27;5.32;;;4.30;;
15858;SDS011;8029;52.202;7.308;2022-11-15T04:15:01;6.53;;;5.32;;
15858;SDS011;8029;52.202;7.308;2022-11-15T04:17:43;5.75;;;5.13;;
15858;SDS011;8029;52.202;7.308;2022-11-15T04:20:10;6.78;;;4.40;;
15858;SDS011;8029;52.202;7.308;2022-11-15T04:22:56;4.82;;;4.07;;
15858;SDS011;8029;52.202;7.308;2022-11-15T04:25:42;5.28;;;4.78;;
15858;SDS011;8029;52.202;7.308;2022-11-15T04:28:09;7.00;;;5.22;;
15858;SDS011;8029;52.202;7.308;2022-11-15T04:30:35;5.57;;;4.50;;
15858;SDS011;8029;52.202;7.308;2022-11-15T04:33:01;4.43;;;4.03;;
15858;SDS011;8029;52.202;7.308;2022-11-15T04:35:27;4.60;;;4.20;;
15858;SDS011;8029;52.202;7.308;2022-11-15T04:37:54;5.03;;;4.53;;
15858;SDS011;8029;52.202;7.308;2022-11-15T04:40:20;4.88;;;3.90;;
15858;SDS011;8029;52.202;7.308;2022-11-15T04:42:46;5.88;;;4.63;;
15858;SDS011;8029;52.202;7.308;2022-11-15T04:45:12;7.18;;;4.10;;
15858;SDS011;8029;52.202;7.308;2022-11-15T04:47:38;5.65;;;4.93;;
15858;SDS011;8029;52.202;7.308;2022-11-15T04:50:05;7.10;;;4.65;;
15858;SDS011;8029;52.202;7.308;2022-11-15T04:52:31;4.65;;;4.20;;
15858;SDS011;8029;52.202;7.308;2022-11-15T04:54:57;6.55;;;5.75;;
15858;SDS011;8029;52.202;7.308;2022-11-15T04:57:23;5.43;;;4.57;;
15858;SDS011;8029;52.202;7.308;2022-11-15T04:59:48;7.90;;;4.80;;
15858;SDS011;8029;52.202;7.308;2022-11-15T05:02:15;12.60;;;4.72;;
15858;SDS011;8029;52.202;7.308;2022-11-15T05:04:41;4.65;;;4.20;;
15858;SDS011;8029;52.202;7.308;2022-11-15T05:07:07;3.88;;;3.50;;
15858;SDS011;8029;52.202;7.308;2022-11-15T05:09:33;4.75;;;4.18;;
15858;SDS011;8029;52.202;7.308;2022-11-15T05:11:59;5.22;;;4.60;;
15858;SDS011;8029;52.202;7.308;2022-11-15T05:14:25;5.93;;;4.78;;
15858;SDS011;8029;52.202;7.308;2022-11-15T05:16:51;4.95;;;4.45;;
15858;SDS011;8029;52.202;7.308;2022-11-15T05:19:17;3.90;;;3.53;;
15858;SDS011;8029;52.202;7.308;2022-11-15T05:21:43;7.25;;;4.47;;
15858;SDS011;8029;52.202;7.308;2022-11-15T05:24:09;14.60;;;4.28;;
15858;SDS011;8029;52.202;7.308;2022-11-15T05:26:36;5.82;;;5.05;;
15858;SDS011;8029;52.202;7.308;2022-11-15T05:29:02;4.35;;;3.95;;
15858;SDS011;8029;52.202;7.308;2022-11-15T05:31:28;4.80;;;3.97;;
15858;SDS011;8029;52.202;7.308;2022-11-15T05:33:55;3.83;;;3.50;;
15858;SDS011;8029;52.202;7.308;2022-11-15T05:36:29;5.13;;;4.15;;
15858;SDS011;8029;52.202;7.308;2022-11-15T05:38:57;4.65;;;4.25;;
15858;SDS011;8029;52.202;7.308;2022-11-15T05:41:33;5.47;;;3.70;;
15858;SDS011;8029;52.202;7.308;2022-11-15T05:43:59;6.50;;;4.28;;
15858;SDS011;8029;52.202;7.308;2022-11-15T05:46:26;4.05;;;3.35;;
15858;SDS011;8029;52.202;7.308;2022-11-15T05:48:53;4.05;;;3.70;;
15858;SDS011;8029;52.202;7.308;2022-11-15T05:51:19;4.43;;;4.00;;
15858;SDS011;8029;52.202;7.308;2022-11-15T05:53:46;4.28;;;3.88;;
15858;SDS011;8029;52.202;7.308;2022-11-15T05:56:12;3.85;;;3.35;;
15858;SDS011;8029;52.202;7.308;2022-11-15T05:58:38;8.63;;;5.43;;
15858;SDS011;8029;52.202;7.308;2022-11-15T06:01:04;4.65;;;3.83;;
15858;SDS011;8029;52.202;7.308;2022-11-15T06:03:30;4.13;;;3.33;;
15858;SDS011;8029;52.202;7.308;2022-11-15T06:05:57;6.60;;;4.63;;
15858;SDS011;8029;52.202;7.308;2022-11-15T06:08:23;5.68;;;4.90;;
15858;SDS011;8029;52.202;7.308;2022-11-15T06:10:49;3.85;;;3.40;;
15858;SDS011;8029;52.202;7.308;2022-11-15T06:13:15;4.15;;;3.75;;
15858;SDS011;8029;52.202;7.308;2022-11-15T06:15:41;4.85;;;4.35;;
15858;SDS011;8029;52.202;7.308;2022-11-15T06:18:07;4.18;;;3.78;;
15858;SDS011;8029;52.202;7.308;2022-11-15T06:20:34;4.88;;;3.97;;
15858;SDS011;8029;52.202;7.308;2022-11-15T06:23:01;4.70;;;4.28;;
15858;SDS011;8029;52.202;7.308;2022-11-15T06:25:28;4.82;;;3.67;;
15858;SDS011;8029;52.202;7.308;2022-11-15T06:27:55;7.32;;;4.30;;
15858;SDS011;8029;52.202;7.308;2022-11-15T06:30:21;3.90;;;3.55;;
15858;SDS011;8029;52.202;7.308;2022-11-15T06:32:47;4.20;;;3.63;;
15858;SDS011;8029;52.202;7.308;2022-11-15T06:35:13;4.10;;;3.75;;
15858;SDS011;8029;52.202;7.308;2022-11-15T06:37:39;3.67;;;3.35;;
15858;SDS011;8029;52.202;7.308;2022-11-15T06:40:06;5.88;;;4.30;;
15858;SDS011;8029;52.202;7.308;2022-11-15T06:42:32;6.13;;;4.15;;
15858;SDS011;8029;52.202;7.308;2022-11-15T06:44:58;4.95;;;4.30;;
15858;SDS011;8029;52.202;7.308;2022-11-15T06:47:24;3.67;;;3.17;;
15858;SDS011;8029;52.202;7.308;2022-11-15T06:49:50;5.13;;;4.38;;
15858;SDS011;8029;52.202;7.308;2022-11-15T06:52:16;3.97;;;3.65;;
15858;SDS011;8029;52.202;7.308;2022-11-15T06:54:46;4.68;;;3.40;;
15858;SDS011;8029;52.202;7.308;2022-11-15T06:57:12;3.25;;;2.97;;
15858;SDS011;8029;52.202;7.308;2022-11-15T06:59:38;6.00;;;4.63;;
15858;SDS011;8029;52.202;7.308;2022-11-15T07:02:04;3.53;;;3.22;;
15858;SDS011;8029;52.202;7.308;2022-11-15T07:04:30;4.30;;;3.90;;
15858;SDS011;8029;52.202;7.308;2022-11-15T07:06:56;5.40;;;3.75;;
15858;SDS011;8029;52.202;7.308;2022-11-15T07:09:22;6.90;;;3.75;;
15858;SDS011;8029;52.202;7.308;2022-11-15T07:11:48;4.55;;;3.90;;
15858;SDS011;8029;52.202;7.308;2022-11-15T07:14:14;9.20;;;3.60;;
15858;SDS011;8029;52.202;7.308;2022-11-15T07:16:40;7.93;;;3.90;;
15858;SDS011;8029;52.202;7.308;2022-11-15T07:19:06;7.70;;;4.53;;
15858;SDS011;8029;52.202;7.308;2022-11-15T07:21:32;5.97;;;4.75;;
15858;SDS011;8029;52.202;7.308;2022-11-15T07:23:58;5.13;;;4.63;;
15858;SDS011;8029;52.202;7.308;2022-11-15T07:26:24;4.20;;;3.80;;
15858;SDS011;8029;52.202;7.308;2022-11-15T07:28:50;6.43;;;4.43;;
15858;SDS011;8029;52.202;7.308;2022-11-15T07:31:16;5.65;;;3.88;;
15858;SDS011;8029;52.202;7.308;2022-11-15T07:33:42;4.60;;;4.13;;
15858;SDS011;8029;52.202;7.308;2022-11-15T07:36:08;5.97;;;3.95;;
15858;SDS011;8029;52.202;7.308;2022-11-15T07:38:34;6.53;;;4.25;;
15858;SDS011;8029;52.202;7.308;2022-11-15T07:41:01;5.25;;;4.28;;
15858;SDS011;8029;52.202;7.308;2022-11-15T07:43:28;4.50;;;4.03;;
15858;SDS011;8029;52.202;7.308;2022-11-15T07:45:54;4.65;;;3.80;;
15858;SDS011;8029;52.202;7.308;2022-11-15T07:48:21;4.60;;;4.18;;
15858;SDS011;8029;52.202;7.308;2022-11-15T07:50:48;9.77;;;4.63;;
15858;SDS011;8029;52.202;7.308;2022-11-15T07:53:15;8.57;;;4.53;;
15858;SDS011;8029;52.202;7.308;2022-11-15T07:55:42;4.38;;;3.83;;
15858;SDS011;8029;52.202;7.308;2022-11-15T07:58:09;7.72;;;4.03;;
15858;SDS011;8029;52.202;7.308;2022-11-15T08:00:35;4.88;;;3.95;;
15858;SDS011;8029;52.202;7.308;2022-11-15T08:03:03;4.78;;;4.18;;
15858;SDS011;8029;52.202;7.308;2022-11-15T08:05:29;9.13;;;4.28;;
15858;SDS011;8029;52.202;7.308;2022-11-15T08:07:55;4.43;;;4.03;;
15858;SDS011;8029;52.202;7.308;2022-11-15T08:10:21;5.75;;;4.40;;
15858;SDS011;8029;52.202;7.308;2022-11-15T08:12:47;4.50;;;3.90;;
15858;SDS011;8029;52.202;7.308;2022-11-15T08:15:14;5.82;;;4.88;;
15858;SDS011;8029;52.202;7.308;2022-11-15T08:17:40;6.50;;;4.57;;
15858;SDS011;8029;52.202;7.308;2022-11-15T08:20:06;4.07;;;3.67;;
15858;SDS011;8029;52.202;7.308;2022-11-15T08:22:33;4.97;;;4.47;;
15858;SDS011;8029;52.202;7.308;2022-11-15T08:24:59;5.85;;;4.82;;
15858;SDS011;8029;52.202;7.308;2022-11-15T08:27:25;6.18;;;4.78;;
15858;SDS011;8029;52.202;7.308;2022-11-15T08:29:51;5.13;;;4.43;;
15858;SDS011;8029;52.202;7.308;2022-11-15T08:32:17;6.22;;;4.15;;
15858;SDS011;8029;52.202;7.308;2022-11-15T08:34:43;3.75;;;3.38;;
15858;SDS011;8029;52.202;7.308;2022-11-15T08:37:09;7.43;;;4.38;;
15858;SDS011;8029;52.202;7.308;2022-11-15T08:39:35;4.55;;;4.10;;
15858;SDS011;8029;52.202;7.308;2022-11-15T08:42:01;3.60;;;3.30;;
15858;SDS011;8029;52.202;7.308;2022-11-15T08:44:27;3.90;;;3.55;;
15858;SDS011;8029;52.202;7.308;2022-11-15T08:46:53;5.00;;;3.97;;
15858;SDS011;8029;52.202;7.308;2022-11-15T08:49:19;3.95;;;3.55;;
15858;SDS011;8029;52.202;7.308;2022-11-15T08:51:45;5.45;;;3.97;;
15858;SDS011;8029;52.202;7.308;2022-11-15T08:54:11;3.75;;;3.45;;
15858;SDS011;8029;52.202;7.308;2022-11-15T08:56:37;3.97;;;3.60;;
15858;SDS011;8029;52.202;7.308;2022-11-15T08:59:03;3.65;;;3.35;;
15858;SDS011;8029;52.202;7.308;2022-11-15T09:01:28;6.53;;;3.75;;
15858;SDS011;8029;52.202;7.308;2022-11-15T09:03:54;4.07;;;3.25;;
15858;SDS011;8029;52.202;7.308;2022-11-15T09:06:20;3.55;;;2.78;;
15858;SDS011;8029;52.202;7.308;2022-11-15T09:08:46;2.80;;;2.50;;
15858;SDS011;8029;52.202;7.308;2022-11-15T09:11:13;2.40;;;2.20;;
15858;SDS011;8029;52.202;7.308;2022-11-15T09:13:41;3.03;;;2.67;;
15858;SDS011;8029;52.202;7.308;2022-11-15T09:16:07;3.25;;;3.05;;
15858;SDS011;8029;52.202;7.308;2022-11-15T09:18:34;6.38;;;2.78;;
15858;SDS011;8029;52.202;7.308;2022-11-15T09:21:00;3.15;;;2.85;;
15858;SDS011;8029;52.202;7.308;2022-11-15T09:23:27;3.38;;;2.90;;
15858;SDS011;8029;52.202;7.308;2022-11-15T09:25:57;2.67;;;2.45;;
15858;SDS011;8029;52.202;7.308;2022-11-15T09:28:23;2.67;;;2.47;;
15858;SDS011;8029;52.202;7.308;2022-11-15T09:30:49;2.40;;;2.20;;
15858;SDS011;8029;52.202;7.308;2022-11-15T09:33:15;3.80;;;2.30;;
15858;SDS011;8029;52.202;7.308;2022-11-15T09:35:42;4.30;;;2.10;;
15858;SDS011;8029;52.202;7.308;2022-11-15T09:38:08;2.40;;;2.20;;
15858;SDS011;8029;52.202;7.308;2022-11-15T09:40:35;4.10;;;2.83;;
15858;SDS011;8029;52.202;7.308;2022-11-15T09:45:34;1.73;;;1.63;;
15858;SDS011;8029;52.202;7.308;2022-11-15T09:51:12;2.00;;;1.90;;
15858;SDS011;8029;52.202;7.308;2022-11-15T09:56:00;1.58;;;1.48;;
15858;SDS011;8029;52.202;7.308;2022-11-15T09:58:30;1.98;;;1.80;;
15858;SDS011;8029;52.202;7.308;2022-11-15T10:00:59;1.98;;;1.70;;
15858;SDS011;8029;52.202;7.308;2022-11-15T10:03:30;1.27;;;1.23;;
15858;SDS011;8029;52.202;7.308;2022-11-15T10:06:00;1.50;;;1.40;;
15858;SDS011;8029;52.202;7.308;2022-11-15T10:08:48;1.42;;;1.33;;
15858;SDS011;8029;52.202;7.308;2022-11-15T10:11:20;1.65;;;1.33;;
15858;SDS011;8029;52.202;7.308;2022-11-15T10:13:48;1.08;;;1.08;;
15858;SDS011;8029;52.202;7.308;2022-11-15T10:19:01;1.23;;;0.98;;
15858;SDS011;8029;52.202;7.308;2022-11-15T10:24:17;0.95;;;0.60;;
15858;SDS011;8029;52.202;7.308;2022-11-15T10:26:47;0.85;;;0.40;;
15858;SDS011;8029;52.202;7.308;2022-11-15T10:29:20;0.60;;;0.50;;
15858;SDS011;8029;52.202;7.308;2022-11-15T10:31:46;0.60;;;0.60;;
15858;SDS011;8029;52.202;7.308;2022-11-15T10:34:16;0.47;;;0.47;;
15858;SDS011;8029;52.202;7.308;2022-11-15T10:36:59;0.38;;;0.38;;
15858;SDS011;8029;52.202;7.308;2022-11-15T10:39:27;0.35;;;0.35;;
15858;SDS011;8029;52.202;7.308;2022-11-15T10:41:53;0.32;;;0.32;;
15858;SDS011;8029;52.202;7.308;2022-11-15T10:44:20;1.20;;;0.68;;
15858;SDS011;8029;52.202;7.308;2022-11-15T10:46:48;0.20;;;0.20;;
15858;SDS011;8029;52.202;7.308;2022-11-15T10:49:28;1.70;;;0.60;;
15858;SDS011;8029;52.202;7.308;2022-11-15T10:51:55;0.35;;;0.35;;
15858;SDS011;8029;52.202;7.308;2022-11-15T10:56:51;0.28;;;0.28;;
15858;SDS011;8029;52.202;7.308;2022-11-15T10:59:28;0.75;;;0.50;;
15858;SDS011;8029;52.202;7.308;2022-11-15T11:01:55;1.35;;;0.65;;
15858;SDS011;8029;52.202;7.308;2022-11-15T11:04:21;0.40;;;0.40;;
15858;SDS011;8029;52.202;7.308;2022-11-15T11:06:54;0.85;;;0.73;;
15858;SDS011;8029;52.202;7.308;2022-11-15T11:11:50;4.97;;;0.80;;
15858;SDS011;8029;52.202;7.308;2022-11-15T11:14:26;0.52;;;0.52;;
15858;SDS011;8029;52.202;7.308;2022-11-15T11:33:01;0.90;;;0.90;;
15858;SDS011;8029;52.202;7.308;2022-11-15T11:40:37;7.72;;;1.52;;
15858;SDS011;8029;52.202;7.308;2022-11-15T11:43:28;3.40;;;1.42;;
15858;SDS011;8029;52.202;7.308;2022-11-15T11:48:43;0.52;;;0.50;;
15858;SDS011;8029;52.202;7.308;2022-11-15T11:51:12;1.50;;;1.40;;
15858;SDS011;8029;52.202;7.308;2022-11-15T11:53:41;0.75;;;0.75;;
15858;SDS011;8029;52.202;7.308;2022-11-15T11:56:19;1.20;;;1.17;;
15858;SDS011;8029;52.202;7.308;2022-11-15T11:58:47;1.70;;;1.50;;
15858;SDS011;8029;52.202;7.308;2022-11-15T12:01:16;0.55;;;0.55;;
15858;SDS011;8029;52.202;7.308;2022-11-15T12:03:52;0.93;;;0.93;;
15858;SDS011;8029;52.202;7.308;2022-11-15T12:08:54;0.60;;;0.60;;
15858;SDS011;8029;52.202;7.308;2022-11-15T12:13:49;0.80;;;0.80;;
15858;SDS011;8029;52.202;7.308;2022-11-15T12:18:49;0.65;;;0.65;;
15858;SDS011;8029;52.202;7.308;2022-11-15T12:21:18;11.77;;;1.00;;
15858;SDS011;8029;52.202;7.308;2022-11-15T12:23:47;0.73;;;0.73;;
15858;SDS011;8029;52.202;7.308;2022-11-15T12:26:17;0.98;;;0.98;;
15858;SDS011;8029;52.202;7.308;2022-11-15T12:28:54;1.00;;;0.80;;
15858;SDS011;8029;52.202;7.308;2022-11-15T12:33:48;2.17;;;0.82;;
15858;SDS011;8029;52.202;7.308;2022-11-15T12:38:51;0.50;;;0.50;;
15858;SDS011;8029;52.202;7.308;2022-11-15T12:41:30;0.68;;;0.68;;
15858;SDS011;8029;52.202;7.308;2022-11-15T12:43:57;0.50;;;0.50;;
15858;SDS011;8029;52.202;7.308;2022-11-15T12:48:57;1.23;;;0.93;;
15858;SDS011;8029;52.202;7.308;2022-11-15T13:02:25;0.20;;;0.20;;
15858;SDS011;8029;52.202;7.308;2022-11-15T13:04:53;0.70;;;0.70;;
15858;SDS011;8029;52.202;7.308;2022-11-15T13:12:56;0.50;;;0.43;;
15858;SDS011;8029;52.202;7.308;2022-11-15T13:16:05;0.40;;;0.40;;
15858;SDS011;8029;52.202;7.308;2022-11-15T13:20:53;0.25;;;0.25;;
15858;SDS011;8029;52.202;7.308;2022-11-15T13:23:20;0.40;;;0.40;;
15858;SDS011;8029;52.202;7.308;2022-11-15T13:30:56;0.40;;;0.40;;
15858;SDS011;8029;52.202;7.308;2022-11-15T13:35:50;0.20;;;0.20;;
15858;SDS011;8029;52.202;7.308;2022-11-15T13:38:19;0.70;;;0.70;;
15858;SDS011;8029;52.202;7.308;2022-11-15T13:40:45;0.85;;;0.70;;
15858;SDS011;8029;52.202;7.308;2022-11-15T13:48:37;0.32;;;0.32;;
15858;SDS011;8029;52.202;7.308;2022-11-15T13:51:05;2.38;;;0.82;;
15858;SDS011;8029;52.202;7.308;2022-11-15T13:53:32;0.60;;;0.60;;
15858;SDS011;8029;52.202;7.308;2022-11-15T13:55:58;2.40;;;0.82;;
15858;SDS011;8029;52.202;7.308;2022-11-15T13:58:25;1.15;;;0.80;;
15858;SDS011;8029;52.202;7.308;2022-11-15T14:01:02;0.52;;;0.52;;
15858;SDS011;8029;52.202;7.308;2022-11-15T14:03:37;0.43;;;0.43;;
15858;SDS011;8029;52.202;7.308;2022-11-15T14:08:35;1.58;;;0.73;;
15858;SDS011;8029;52.202;7.308;2022-11-15T14:11:05;0.75;;;0.47;;
15858;SDS011;8029;52.202;7.308;2022-11-15T14:13:31;0.47;;;0.47;;
15858;SDS011;8029;52.202;7.308;2022-11-15T14:16:13;0.25;;;0.25;;
15858;SDS011;8029;52.202;7.308;2022-11-15T14:18:42;0.40;;;0.40;;
15858;SDS011;8029;52.202;7.308;2022-11-15T14:21:09;0.35;;;0.35;;
15858;SDS011;8029;52.202;7.308;2022-11-15T14:23:35;0.88;;;0.85;;
15858;SDS011;8029;52.202;7.308;2022-11-15T14:26:01;1.48;;;0.77;;
15858;SDS011;8029;52.202;7.308;2022-11-15T14:28:33;1.75;;;0.50;;
15858;SDS011;8029;52.202;7.308;2022-11-15T14:31:04;0.70;;;0.70;;
15858;SDS011;8029;52.202;7.308;2022-11-15T14:33:33;0.65;;;0.52;;
15858;SDS011;8029;52.202;7.308;2022-11-15T14:36:12;0.75;;;0.55;;
15858;SDS011;8029;52.202;7.308;2022-11-15T14:38:39;0.95;;;0.70;;
15858;SDS011;8029;52.202;7.308;2022-11-15T14:41:05;1.75;;;0.93;;
15858;SDS011;8029;52.202;7.308;2022-11-15T14:43:31;0.45;;;0.40;;
15858;SDS011;8029;52.202;7.308;2022-11-15T14:45:57;1.10;;;0.50;;
15858;SDS011;8029;52.202;7.308;2022-11-15T14:48:24;0.50;;;0.40;;
15858;SDS011;8029;52.202;7.308;2022-11-15T14:50:50;8.65;;;1.08;;
15858;SDS011;8029;52.202;7.308;2022-11-15T14:53:17;1.83;;;0.88;;
15858;SDS011;8029;52.202;7.308;2022-11-15T14:55:44;0.35;;;0.35;;
15858;SDS011;8029;52.202;7.308;2022-11-15T14:58:10;3.70;;;0.68;;
15858;SDS011;8029;52.202;7.308;2022-11-15T15:00:37;4.30;;;0.80;;
15858;SDS011;8029;52.202;7.308;2022-11-15T15:03:04;1.48;;;1.17;;
15858;SDS011;8029;52.202;7.308;2022-11-15T15:05:36;1.10;;;0.70;;
15858;SDS011;8029;52.202;7.308;2022-11-15T15:08:02;1.33;;;1.23;;
15858;SDS011;8029;52.202;7.308;2022-11-15T15:10:31;0.70;;;0.70;;
15858;SDS011;8029;52.202;7.308;2022-11-15T15:12:57;0.50;;;0.50;;
15858;SDS011;8029;52.202;7.308;2022-11-15T15:15:25;2.22;;;0.77;;
15858;SDS011;8029;52.202;7.308;2022-11-15T15:17:51;0.63;;;0.63;;
15858;SDS011;8029;52.202;7.308;2022-11-15T15:20:17;1.10;;;0.75;;
15858;SDS011;8029;52.202;7.308;2022-11-15T15:22:43;0.43;;;0.43;;
15858;SDS011;8029;52.202;7.308;2022-11-15T15:25:30;0.85;;;0.80;;
15858;SDS011;8029;52.202;7.308;2022-11-15T15:27:57;0.73;;;0.65;;
15858;SDS011;8029;52.202;7.308;2022-11-15T15:30:23;1.40;;;0.68;;
15858;SDS011;8029;52.202;7.308;2022-11-15T15:32:49;0.45;;;0.45;;
15858;SDS011;8029;52.202;7.308;2022-11-15T15:35:16;1.58;;;1.00;;
15858;SDS011;8029;52.202;7.308;2022-11-15T15:37:43;1.25;;;0.90;;
15858;SDS011;8029;52.202;7.308;2022-11-15T15:40:19;3.42;;;1.60;;
15858;SDS011;8029;52.202;7.308;2022-11-15T15:42:45;2.35;;;1.80;;
15858;SDS011;8029;52.202;7.308;2022-11-15T15:45:12;4.20;;;2.80;;
15858;SDS011;8029;52.202;7.308;2022-11-15T15:47:38;2.67;;;1.40;;
15858;SDS011;8029;52.202;7.308;2022-11-15T15:50:27;1.63;;;1.30;;
15858;SDS011;8029;52.202;7.308;2022-11-15T15:52:51;2.92;;;1.30;;
15858;SDS011;8029;52.202;7.308;2022-11-15T15:55:18;0.80;;;0.80;;
15858;SDS011;8029;52.202;7.308;2022-11-15T15:57:44;1.55;;;1.10;;
15858;SDS011;8029;52.202;7.308;2022-11-15T16:00:10;0.98;;;0.98;;
15858;SDS011;8029;52.202;7.308;2022-11-15T16:02:37;1.00;;;1.00;;
15858;SDS011;8029;52.202;7.308;2022-11-15T16:05:03;1.13;;;0.90;;
15858;SDS011;8029;52.202;7.308;2022-11-15T16:07:29;0.85;;;0.85;;
15858;SDS011;8029;52.202;7.308;2022-11-15T16:09:55;1.20;;;0.85;;
15858;SDS011;8029;52.202;7.308;2022-11-15T16:12:31;3.22;;;0.88;;
15858;SDS011;8029;52.202;7.308;2022-11-15T16:14:57;0.38;;;0.38;;
15858;SDS011;8029;52.202;7.308;2022-11-15T16:17:24;0.60;;;0.60;;
15858;SDS011;8029;52.202;7.308;2022-11-15T16:19:51;1.10;;;1.05;;
15858;SDS011;8029;52.202;7.308;2022-11-15T16:22:18;1.95;;;1.80;;
15858;SDS011;8029;52.202;7.308;2022-11-15T16:24:44;4.78;;;3.75;;
15858;SDS011;8029;52.202;7.308;2022-11-15T16:27:19;9.88;;;5.80;;
15858;SDS011;8029;52.202;7.308;2022-11-15T16:29:45;3.47;;;2.63;;
15858;SDS011;8029;52.202;7.308;2022-11-15T16:32:12;2.15;;;1.60;;
15858;SDS011;8029;52.202;7.308;2022-11-15T16:34:38;1.02;;;0.93;;
15858;SDS011;8029;52.202;7.308;2022-11-15T16:37:04;1.20;;;1.05;;
15858;SDS011;8029;52.202;7.308;2022-11-15T16:39:31;0.82;;;0.82;;
15858;SDS011;8029;52.202;7.308;2022-11-15T16:41:57;5.78;;;1.10;;
15858;SDS011;8029;52.202;7.308;2022-11-15T16:44:23;0.68;;;0.60;;
15858;SDS011;8029;52.202;7.308;2022-11-15T16:46:50;0.40;;;0.40;;
15858;SDS011;8029;52.202;7.308;2022-11-15T16:49:16;0.63;;;0.55;;
15858;SDS011;8029;52.202;7.308;2022-11-15T16:51:49;0.68;;;0.68;;
15858;SDS011;8029;52.202;7.308;2022-11-15T16:54:15;6.40;;;0.82;;
15858;SDS011;8029;52.202;7.308;2022-11-15T16:56:41;0.93;;;0.52;;
15858;SDS011;8029;52.202;7.308;2022-11-15T16:59:08;0.22;;;0.22;;
15858;SDS011;8029;52.202;7.308;2022-11-15T17:01:36;0.40;;;0.40;;